Time;durP1;ratioP1;P1;durP2;ratioP2;P2;SDS_P1;SDS_P2;PMS_P1;PMS_P2;Temp;Humidity;BMP_temperature;BMP_pressure;BME280_temperature;BME280_humidity;BME280_pressure;Samples;Min_cycle;Max_cycle;Signal;HPM_P1;HPM_P2
2022/03/10 00:01:45;;;;;;;9.90;3.08;;;4.20;76.90;;;;;;5038647;28;20485;-64
2022/03/10 00:04:11;;;;;;;17.00;4.80;;;4.20;77.00;;;;;;5047161;28;20491;-64
2022/03/10 00:06:36;;;;;;;10.57;3.35;;;4.10;76.90;;;;;;5040732;28;20021;-64
2022/03/10 00:09:02;;;;;;;11.80;3.85;;;4.00;77.20;;;;;;5039740;28;20064;-64
2022/03/10 00:11:28;;;;;;;11.50;4.25;;;4.00;77.50;;;;;;5041043;28;20025;-64
2022/03/10 00:13:54;;;;;;;12.88;3.65;;;4.00;77.20;;;;;;5041357;28;20737;-64
2022/03/10 00:16:21;;;;;;;14.82;5.18;;;4.10;77.30;;;;;;5041434;28;20021;-64
2022/03/10 00:18:46;;;;;;;9.70;3.58;;;4.20;77.20;;;;;;5033210;28;20052;-64
2022/03/10 00:21:12;;;;;;;20.58;4.78;;;4.20;77.00;;;;;;5039332;28;20083;-64
2022/03/10 00:23:38;;;;;;;10.10;3.38;;;4.30;76.90;;;;;;5037883;28;20036;-64
2022/03/10 00:26:03;;;;;;;9.55;4.25;;;4.30;77.00;;;;;;5036320;28;20026;-64
2022/03/10 00:28:29;;;;;;;10.27;4.65;;;4.30;76.90;;;;;;5038542;28;20033;-64
2022/03/10 00:30:55;;;;;;;13.43;4.15;;;4.30;77.30;;;;;;5032465;28;20049;-64
2022/03/10 00:33:20;;;;;;;12.00;4.55;;;4.30;77.20;;;;;;5044904;28;20028;-64
2022/03/10 00:35:47;;;;;;;11.48;3.95;;;4.30;78.20;;;;;;5044637;28;20109;-64
2022/03/10 00:38:13;;;;;;;11.45;3.63;;;4.30;77.00;;;;;;5039986;28;20021;-64
2022/03/10 00:40:39;;;;;;;15.32;5.00;;;4.40;76.80;;;;;;5039324;28;20075;-64
2022/03/10 00:43:10;;;;;;;11.73;4.75;;;4.40;76.70;;;;;;5037249;28;20033;-64
2022/03/10 00:45:37;;;;;;;9.40;3.63;;;4.50;76.30;;;;;;5035899;28;20404;-64
2022/03/10 00:48:03;;;;;;;7.90;3.53;;;4.50;76.20;;;;;;5039731;28;20025;-64
2022/03/10 00:50:29;;;;;;;14.60;4.50;;;4.60;75.70;;;;;;5038894;28;20060;-64
2022/03/10 00:52:55;;;;;;;11.68;3.95;;;4.70;75.10;;;;;;5041260;28;20052;-64
2022/03/10 00:55:21;;;;;;;6.35;2.60;;;5.00;74.10;;;;;;5034716;28;20040;-64
2022/03/10 00:57:47;;;;;;;8.05;3.33;;;5.10;73.60;;;;;;5049781;28;20029;-64
2022/03/10 01:00:13;;;;;;;10.02;3.72;;;5.20;73.40;;;;;;5035712;28;20033;-64
2022/03/10 01:02:39;;;;;;;9.95;3.65;;;5.10;73.60;;;;;;5043184;28;20543;-64
2022/03/10 01:05:06;;;;;;;10.85;2.75;;;5.00;74.40;;;;;;5038678;28;20061;-64
2022/03/10 01:07:32;;;;;;;14.73;4.03;;;4.90;74.10;;;;;;5044623;28;20029;-64
2022/03/10 01:09:57;;;;;;;10.85;4.30;;;4.90;74.30;;;;;;5057640;28;20036;-64
2022/03/10 01:12:23;;;;;;;16.35;5.82;;;4.80;74.80;;;;;;5046049;28;20099;-64
2022/03/10 01:14:49;;;;;;;11.38;4.30;;;4.80;74.70;;;;;;5045060;28;20108;-64
2022/03/10 01:17:14;;;;;;;8.88;3.25;;;4.80;75.10;;;;;;5039972;28;20040;-64
2022/03/10 01:19:40;;;;;;;11.35;4.40;;;4.70;74.80;;;;;;5045227;28;20480;-66
2022/03/10 01:22:07;;;;;;;11.50;4.32;;;4.70;75.10;;;;;;5041157;28;20044;-64
2022/03/10 01:24:33;;;;;;;14.23;4.72;;;4.70;75.40;;;;;;5042089;28;20544;-64
2022/03/10 01:26:59;;;;;;;13.93;4.75;;;4.60;75.60;;;;;;5042652;28;20068;-64
2022/03/10 01:29:25;;;;;;;13.18;4.47;;;4.60;75.60;;;;;;5040318;28;20081;-64
2022/03/10 01:31:50;;;;;;;10.15;3.90;;;4.60;75.60;;;;;;5042499;28;20036;-64
2022/03/10 01:34:16;;;;;;;12.68;4.20;;;4.70;75.20;;;;;;5044254;28;20381;-64
2022/03/10 01:36:41;;;;;;;17.92;3.90;;;4.70;75.10;;;;;;5043354;28;20029;-64
2022/03/10 01:39:07;;;;;;;10.90;4.57;;;4.70;75.30;;;;;;5046920;28;20081;-64
2022/03/10 01:41:34;;;;;;;12.35;4.15;;;4.60;75.50;;;;;;5038428;28;20461;-64
2022/03/10 01:44:06;;;;;;;12.30;3.15;;;4.60;75.70;;;;;;5044623;28;20060;-64
2022/03/10 01:46:32;;;;;;;11.02;3.72;;;4.60;75.70;;;;;;5040687;28;20032;-64
2022/03/10 01:48:58;;;;;;;7.60;3.22;;;4.50;75.70;;;;;;5037423;28;20029;-64
2022/03/10 01:51:24;;;;;;;15.45;4.95;;;4.40;76.20;;;;;;5042934;28;20033;-64
2022/03/10 01:53:50;;;;;;;12.85;3.85;;;4.40;76.30;;;;;;5038836;28;20037;-64
2022/03/10 01:56:20;;;;;;;10.18;3.10;;;4.50;76.40;;;;;;5042745;28;20511;-64
2022/03/10 01:58:46;;;;;;;13.50;5.75;;;4.50;75.90;;;;;;5037003;28;20075;-64
2022/03/10 02:01:13;;;;;;;8.68;3.20;;;4.40;76.10;;;;;;5042888;28;20104;-64
2022/03/10 02:03:40;;;;;;;8.20;4.25;;;4.40;76.60;;;;;;5045422;28;20053;-64
2022/03/10 02:06:05;;;;;;;8.38;3.35;;;4.30;77.10;;;;;;5042622;28;20080;-64
2022/03/10 02:11:17;;;;;;;10.60;4.43;;;4.00;78.00;;;;;;5042550;28;20086;-64
2022/03/10 02:13:43;;;;;;;12.63;4.63;;;3.90;78.80;;;;;;5038532;28;20402;-64
2022/03/10 02:19:00;;;;;;;9.35;3.38;;;3.70;79.20;;;;;;5036356;28;20124;-64
2022/03/10 02:21:26;;;;;;;8.63;3.58;;;3.70;79.60;;;;;;5037553;28;20484;-64
2022/03/10 02:23:53;;;;;;;8.13;3.38;;;3.70;79.40;;;;;;5035792;28;20533;-64
2022/03/10 02:26:18;;;;;;;10.77;3.60;;;3.70;79.70;;;;;;5041121;28;20641;-64
2022/03/10 02:28:44;;;;;;;7.68;3.15;;;3.60;79.90;;;;;;5031576;28;20021;-64
2022/03/10 02:31:10;;;;;;;8.70;3.08;;;3.50;80.40;;;;;;5040329;28;20041;-64
2022/03/10 02:33:37;;;;;;;10.20;3.70;;;3.40;80.50;;;;;;5056306;28;20020;-64
2022/03/10 02:36:04;;;;;;;10.02;2.97;;;3.40;80.90;;;;;;5048771;28;20029;-64
2022/03/10 02:38:29;;;;;;;11.50;4.18;;;3.50;80.20;;;;;;5039964;28;20087;-64
2022/03/10 02:40:55;;;;;;;5.85;2.75;;;3.60;79.40;;;;;;5046820;28;20501;-64
2022/03/10 02:43:21;;;;;;;6.10;3.15;;;3.70;79.00;;;;;;5041801;28;20033;-64
2022/03/10 02:45:47;;;;;;;12.02;3.63;;;3.60;79.20;;;;;;5045528;28;20396;-64
2022/03/10 02:48:16;;;;;;;10.27;4.88;;;3.30;80.00;;;;;;5036323;28;20034;-64
2022/03/10 02:50:43;;;;;;;12.15;4.13;;;3.00;81.40;;;;;;5037947;28;20516;-64
2022/03/10 02:53:10;;;;;;;8.90;3.53;;;2.80;83.00;;;;;;5037997;28;20108;-64
2022/03/10 02:55:36;;;;;;;9.40;3.65;;;2.60;84.20;;;;;;5043103;28;20493;-64
2022/03/10 02:58:02;;;;;;;10.02;4.13;;;2.40;84.80;;;;;;5042999;28;20147;-64
2022/03/10 03:00:28;;;;;;;11.02;4.18;;;2.20;85.40;;;;;;5042779;28;20026;-64
2022/03/10 03:02:54;;;;;;;14.75;3.90;;;2.10;85.00;;;;;;5058702;28;20512;-64
2022/03/10 03:05:20;;;;;;;13.52;3.75;;;2.00;86.10;;;;;;5039603;28;20053;-64
2022/03/10 03:07:46;;;;;;;7.60;3.17;;;2.10;87.00;;;;;;5037532;28;20064;-64
2022/03/10 03:10:12;;;;;;;9.98;3.38;;;2.30;85.70;;;;;;5034674;28;20025;-64
2022/03/10 03:12:50;;;;;;;8.85;3.13;;;2.20;86.00;;;;;;5038715;28;20362;-64
2022/03/10 03:15:17;;;;;;;8.73;3.00;;;2.20;85.90;;;;;;5045596;28;20028;-64
2022/03/10 03:17:42;;;;;;;10.57;4.30;;;2.30;86.20;;;;;;5042875;28;20049;-64
2022/03/10 03:20:14;;;;;;;8.35;3.28;;;2.50;85.70;;;;;;5045720;28;20082;-64
2022/03/10 03:22:43;;;;;;;8.05;3.00;;;2.50;85.60;;;;;;5044232;28;20025;-64
2022/03/10 03:25:10;;;;;;;11.50;3.92;;;2.30;87.20;;;;;;5043252;28;20039;-64
2022/03/10 03:27:36;;;;;;;5.40;2.75;;;2.20;87.60;;;;;;5039390;28;20033;-64
2022/03/10 03:30:02;;;;;;;8.35;2.88;;;2.40;86.80;;;;;;5043218;28;20049;-64
2022/03/10 03:32:27;;;;;;;12.02;3.55;;;2.50;86.60;;;;;;5049578;28;20021;-64
2022/03/10 03:34:53;;;;;;;7.47;2.70;;;2.50;86.50;;;;;;5046564;28;20082;-64
2022/03/10 03:37:18;;;;;;;8.35;3.83;;;2.30;87.30;;;;;;5048755;28;20038;-64
2022/03/10 03:39:44;;;;;;;9.77;4.38;;;2.20;87.40;;;;;;5040002;28;20037;-64
2022/03/10 03:42:10;;;;;;;7.65;3.03;;;2.20;87.90;;;;;;5044422;28;20030;-64
2022/03/10 03:44:35;;;;;;;7.75;3.55;;;2.00;88.20;;;;;;5038541;28;20060;-64
2022/03/10 03:47:01;;;;;;;6.38;3.10;;;1.90;89.00;;;;;;5042606;28;20033;-64
2022/03/10 03:49:26;;;;;;;11.73;2.90;;;1.90;90.00;;;;;;5042533;28;20024;-64
2022/03/10 03:51:52;;;;;;;12.95;3.40;;;1.50;90.60;;;;;;5049390;28;20024;-64
2022/03/10 03:54:18;;;;;;;8.52;3.40;;;1.20;91.30;;;;;;5045650;28;20049;-64
2022/03/10 03:56:44;;;;;;;7.00;2.90;;;1.20;92.10;;;;;;5037116;28;20025;-64
2022/03/10 03:59:10;;;;;;;8.18;3.67;;;1.40;92.20;;;;;;5039467;28;20029;-64
2022/03/10 04:01:35;;;;;;;9.70;2.67;;;1.50;91.80;;;;;;5044849;28;20028;-64
2022/03/10 04:04:01;;;;;;;9.10;2.75;;;1.60;91.80;;;;;;5037830;28;20496;-64
2022/03/10 04:06:26;;;;;;;9.35;3.70;;;1.60;91.80;;;;;;5043375;28;20116;-64
2022/03/10 04:08:52;;;;;;;12.13;3.88;;;1.50;91.80;;;;;;5039651;28;20108;-64
2022/03/10 04:11:18;;;;;;;7.43;4.10;;;1.50;91.90;;;;;;5045683;28;20029;-64
2022/03/10 04:13:44;;;;;;;14.13;3.08;;;1.40;92.20;;;;;;5041873;28;20034;-64
2022/03/10 04:16:10;;;;;;;12.93;3.90;;;1.50;92.70;;;;;;5037064;28;20056;-64
2022/03/10 04:18:35;;;;;;;6.75;3.80;;;1.40;92.70;;;;;;5034187;28;20029;-64
2022/03/10 04:21:01;;;;;;;11.77;2.60;;;1.50;92.50;;;;;;5034945;28;20029;-64
2022/03/10 04:23:27;;;;;;;6.65;3.25;;;1.60;92.60;;;;;;5037783;28;20068;-64
2022/03/10 04:25:53;;;;;;;11.38;3.13;;;1.50;92.50;;;;;;5044219;28;20061;-63
2022/03/10 04:28:19;;;;;;;5.00;2.67;;;1.50;92.90;;;;;;5035794;28;20024;-64
2022/03/10 04:30:45;;;;;;;9.98;3.13;;;1.50;92.90;;;;;;5040400;28;20049;-64
2022/03/10 04:33:11;;;;;;;9.75;2.95;;;1.50;92.90;;;;;;5045524;28;20027;-64
2022/03/10 04:35:37;;;;;;;12.85;3.38;;;1.50;92.90;;;;;;5051136;28;20029;-64
2022/03/10 04:38:03;;;;;;;12.65;3.60;;;1.50;92.80;;;;;;5040907;28;20040;-64
2022/03/10 04:40:29;;;;;;;9.73;4.03;;;1.40;92.90;;;;;;5048336;28;20033;-64
2022/03/10 04:42:55;;;;;;;10.80;3.42;;;1.40;93.10;;;;;;5037298;28;20041;-64
2022/03/10 04:45:21;;;;;;;13.00;3.92;;;1.70;93.80;;;;;;5047239;28;20031;-64
2022/03/10 04:47:47;;;;;;;5.07;2.22;;;1.30;94.00;;;;;;5044020;28;20017;-64
2022/03/10 04:50:14;;;;;;;9.43;3.10;;;1.10;94.50;;;;;;5045124;28;20021;-64
2022/03/10 04:52:41;;;;;;;11.07;3.40;;;1.00;94.90;;;;;;5040822;28;20033;-64
2022/03/10 04:55:09;;;;;;;13.77;3.92;;;0.80;95.20;;;;;;5042541;28;20017;-64
2022/03/10 04:57:35;;;;;;;11.48;3.05;;;0.90;95.50;;;;;;5042943;28;20086;-64
2022/03/10 05:00:08;;;;;;;5.95;2.90;;;0.80;95.80;;;;;;5036211;28;20485;-64
2022/03/10 05:02:35;;;;;;;7.97;2.75;;;0.50;96.20;;;;;;5038741;28;20389;-64
2022/03/10 05:05:01;;;;;;;8.00;3.20;;;0.40;96.60;;;;;;5051515;28;20063;-64
2022/03/10 05:07:27;;;;;;;8.75;3.53;;;0.20;97.70;;;;;;5037758;28;20108;-64
2022/03/10 05:09:53;;;;;;;8.13;3.15;;;-0.10;98.90;;;;;;5043076;28;20119;-64
2022/03/10 05:12:19;;;;;;;8.80;2.78;;;0.00;99.90;;;;;;5042615;28;20495;-64
2022/03/10 05:14:44;;;;;;;8.32;2.35;;;0.10;99.90;;;;;;5045303;28;20044;-64
2022/03/10 05:17:10;;;;;;;9.15;3.03;;;0.40;99.90;;;;;;5042568;28;20029;-64
2022/03/10 05:19:35;;;;;;;6.13;2.67;;;0.60;99.70;;;;;;5041659;28;20416;-64
2022/03/10 05:22:01;;;;;;;7.18;2.45;;;0.50;99.50;;;;;;5040320;28;20021;-64
2022/03/10 05:24:27;;;;;;;8.40;2.85;;;0.40;99.70;;;;;;5037690;28;20027;-64
2022/03/10 05:26:52;;;;;;;7.80;2.85;;;0.30;99.60;;;;;;5044762;28;20108;-63
2022/03/10 05:29:18;;;;;;;7.38;3.22;;;0.30;99.90;;;;;;5036458;28;20021;-63
2022/03/10 05:31:43;;;;;;;8.15;2.95;;;0.20;99.90;;;;;;5037857;28;20033;-63
2022/03/10 05:34:09;;;;;;;9.30;3.00;;;0.10;99.90;;;;;;5043628;28;20036;-64
2022/03/10 05:36:36;;;;;;;4.65;2.10;;;0.00;99.90;;;;;;5038204;28;20086;-64
2022/03/10 05:39:02;;;;;;;7.38;2.95;;;0.00;99.90;;;;;;5036428;28;20128;-64
2022/03/10 05:41:31;;;;;;;7.15;2.38;;;0.10;99.90;;;;;;5034873;28;20034;-63
2022/03/10 05:43:57;;;;;;;12.63;3.92;;;0.20;99.90;;;;;;5038758;28;20045;-63
2022/03/10 05:46:22;;;;;;;7.70;2.85;;;0.30;99.90;;;;;;5040464;28;20190;-63
2022/03/10 05:48:48;;;;;;;7.45;3.03;;;0.40;99.90;;;;;;5038556;28;20390;-64
2022/03/10 05:51:14;;;;;;;7.80;3.03;;;0.30;99.90;;;;;;5038831;28;20067;-64
2022/03/10 05:53:39;;;;;;;11.18;3.50;;;0.20;99.90;;;;;;5041946;28;20032;-63
2022/03/10 05:56:05;;;;;;;7.72;2.15;;;0.10;99.90;;;;;;5044675;28;20028;-63
2022/03/10 05:58:31;;;;;;;10.57;3.70;;;0.20;99.90;;;;;;5033215;28;20024;-63
2022/03/10 06:00:57;;;;;;;16.17;4.05;;;0.10;99.90;;;;;;5040078;28;20031;-64
2022/03/10 06:03:22;;;;;;;13.30;2.72;;;0.40;99.90;;;;;;5041190;28;20026;-63
2022/03/10 06:05:48;;;;;;;9.43;3.10;;;0.60;99.90;;;;;;5037047;28;20025;-63
2022/03/10 06:08:14;;;;;;;10.43;4.45;;;0.90;99.90;;;;;;5041603;28;20043;-63
2022/03/10 06:10:39;;;;;;;11.32;4.00;;;0.90;99.90;;;;;;5035621;28;20469;-64
2022/03/10 06:13:05;;;;;;;6.05;3.17;;;1.00;99.90;;;;;;5038882;28;20053;-64
2022/03/10 06:15:31;;;;;;;10.82;4.20;;;1.00;99.90;;;;;;5036821;28;20045;-63
2022/03/10 06:17:56;;;;;;;12.82;3.85;;;1.00;99.90;;;;;;5036499;28;20029;-63
2022/03/10 06:20:22;;;;;;;6.55;2.92;;;1.00;99.90;;;;;;5035497;28;20036;-64
2022/03/10 06:22:48;;;;;;;11.77;3.53;;;1.10;99.90;;;;;;5030913;28;20111;-64
2022/03/10 06:25:13;;;;;;;8.80;3.15;;;1.10;99.90;;;;;;5038126;28;20586;-64
2022/03/10 06:27:39;;;;;;;18.90;3.90;;;1.10;99.90;;;;;;5041743;28;20094;-64
2022/03/10 06:30:05;;;;;;;10.55;4.55;;;1.10;99.90;;;;;;5038229;28;20124;-64
2022/03/10 06:32:31;;;;;;;11.27;3.00;;;1.20;99.90;;;;;;5041001;28;20017;-65
2022/03/10 06:34:59;;;;;;;7.53;2.80;;;1.10;99.90;;;;;;5047308;28;20021;-64
2022/03/10 06:37:25;;;;;;;22.02;4.40;;;1.00;99.90;;;;;;5046372;28;20021;-64
2022/03/10 06:39:52;;;;;;;14.60;3.65;;;1.10;99.90;;;;;;5039721;28;20032;-64
2022/03/10 06:42:18;;;;;;;12.38;4.10;;;1.20;99.90;;;;;;5044939;28;20390;-64
2022/03/10 06:44:44;;;;;;;11.23;3.40;;;1.30;99.90;;;;;;5041173;28;20087;-64
2022/03/10 06:47:11;;;;;;;9.30;3.72;;;1.50;99.90;;;;;;5043734;28;20026;-64
2022/03/10 06:49:37;;;;;;;9.32;2.72;;;1.60;99.90;;;;;;5039420;28;20028;-64
2022/03/10 06:52:03;;;;;;;9.25;3.05;;;1.80;99.90;;;;;;5039111;28;20044;-64
2022/03/10 06:54:28;;;;;;;10.20;3.70;;;1.90;99.80;;;;;;5043561;28;20070;-64
2022/03/10 06:56:54;;;;;;;6.32;2.90;;;1.90;99.50;;;;;;5034119;28;20041;-64
2022/03/10 06:59:19;;;;;;;21.02;3.47;;;1.90;99.40;;;;;;5033260;28;20029;-64
2022/03/10 07:01:45;;;;;;;12.10;3.35;;;2.00;99.40;;;;;;5039161;28;20025;-64
2022/03/10 07:04:11;;;;;;;8.65;4.10;;;1.90;99.00;;;;;;5039090;28;20039;-64
2022/03/10 07:06:36;;;;;;;11.13;2.97;;;1.90;98.90;;;;;;5037253;28;20090;-64
2022/03/10 07:09:03;;;;;;;13.93;3.70;;;2.00;99.30;;;;;;5037734;28;20036;-64
2022/03/10 07:11:28;;;;;;;8.57;3.28;;;2.10;99.30;;;;;;5041276;28;20584;-64
2022/03/10 07:13:54;;;;;;;9.40;3.65;;;2.20;99.30;;;;;;5039961;28;20107;-64
2022/03/10 07:16:20;;;;;;;8.50;2.72;;;2.30;99.00;;;;;;5046860;28;20021;-64
2022/03/10 07:18:50;;;;;;;11.07;3.78;;;2.40;98.70;;;;;;5038757;28;20481;-64
2022/03/10 07:21:18;;;;;;;8.38;2.78;;;2.50;98.10;;;;;;5035180;28;20017;-64
2022/03/10 07:23:44;;;;;;;6.95;3.00;;;2.70;97.70;;;;;;5033203;28;20449;-64
2022/03/10 07:26:10;;;;;;;9.77;4.00;;;2.80;97.60;;;;;;5038891;28;20372;-64
2022/03/10 07:28:36;;;;;;;8.80;3.50;;;2.90;97.30;;;;;;5025692;28;20056;-64
2022/03/10 07:31:01;;;;;;;7.07;3.08;;;3.10;96.70;;;;;;5028817;28;20513;-64
2022/03/10 07:33:27;;;;;;;5.97;2.85;;;3.30;96.80;;;;;;5040546;28;20371;-64
2022/03/10 07:35:53;;;;;;;11.00;4.32;;;3.40;96.30;;;;;;5045812;28;20028;-64
2022/03/10 07:38:19;;;;;;;11.88;3.67;;;3.50;96.10;;;;;;5027400;28;20036;-64
2022/03/10 07:40:44;;;;;;;10.10;3.88;;;3.70;95.80;;;;;;5035173;28;20029;-64
2022/03/10 07:43:10;;;;;;;13.40;3.90;;;3.90;95.60;;;;;;5035131;28;20094;-64
2022/03/10 07:45:35;;;;;;;10.38;3.38;;;4.20;94.90;;;;;;5037815;28;20017;-64
2022/03/10 07:48:07;;;;;;;7.78;2.53;;;4.50;94.60;;;;;;5040095;28;20029;-64
2022/03/10 07:50:34;;;;;;;10.45;3.40;;;4.70;94.10;;;;;;5036626;28;20105;-64
2022/03/10 07:52:59;;;;;;;9.48;4.32;;;4.90;93.70;;;;;;5034799;28;20021;-64
2022/03/10 07:55:25;;;;;;;9.63;4.28;;;5.10;93.10;;;;;;5038630;28;20481;-64
2022/03/10 07:57:51;;;;;;;11.10;3.75;;;5.20;92.30;;;;;;5033362;28;20033;-64
2022/03/10 08:00:16;;;;;;;10.07;3.92;;;5.50;92.00;;;;;;5033532;28;20541;-64
2022/03/10 08:02:42;;;;;;;16.05;4.78;;;5.80;90.80;;;;;;5037959;28;20032;-64
2022/03/10 08:05:09;;;;;;;9.63;3.70;;;5.90;90.50;;;;;;5042970;28;20385;-64
2022/03/10 08:07:35;;;;;;;10.77;3.60;;;6.10;90.40;;;;;;5029718;28;20029;-64
2022/03/10 08:10:03;;;;;;;10.77;3.22;;;6.20;90.10;;;;;;5042047;28;20144;-64
2022/03/10 08:12:30;;;;;;;13.35;4.57;;;6.40;89.70;;;;;;5032924;28;20025;-64
2022/03/10 08:14:59;;;;;;;8.05;2.97;;;6.50;89.30;;;;;;5028185;28;20139;-64
2022/03/10 08:17:25;;;;;;;16.13;4.15;;;6.60;88.10;;;;;;5027712;28;20124;-64
2022/03/10 08:19:51;;;;;;;9.13;3.78;;;6.70;87.20;;;;;;5033403;28;20116;-64
2022/03/10 08:22:18;;;;;;;13.55;4.85;;;6.90;87.00;;;;;;5052336;28;20021;-64
2022/03/10 08:24:46;;;;;;;10.30;4.15;;;7.00;87.40;;;;;;5027116;28;20481;-64
2022/03/10 08:27:14;;;;;;;9.40;3.63;;;7.10;87.30;;;;;;5030736;28;20107;-64
2022/03/10 08:29:40;;;;;;;10.70;4.15;;;7.20;86.70;;;;;;5035855;28;20412;-64
2022/03/10 08:32:06;;;;;;;9.52;2.95;;;7.30;87.50;;;;;;5043030;28;20029;-65
2022/03/10 08:34:32;;;;;;;9.10;4.38;;;7.40;87.50;;;;;;5037149;28;20022;-65
2022/03/10 08:36:58;;;;;;;11.75;4.40;;;7.50;86.60;;;;;;5045392;28;20028;-65
2022/03/10 08:39:23;;;;;;;11.68;3.92;;;7.70;85.00;;;;;;5040892;28;20044;-65
2022/03/10 08:41:49;;;;;;;15.15;5.18;;;8.20;84.90;;;;;;5034670;28;20569;-65
2022/03/10 08:44:16;;;;;;;12.93;4.30;;;8.80;81.80;;;;;;5037386;28;20451;-64
2022/03/10 08:46:41;;;;;;;11.30;3.83;;;9.50;80.80;;;;;;5033032;28;20116;-65
2022/03/10 08:49:07;;;;;;;11.82;4.70;;;10.10;80.10;;;;;;5033533;28;20513;-64
2022/03/10 08:51:33;;;;;;;11.60;4.20;;;10.70;77.40;;;;;;5035970;28;20465;-65
2022/03/10 08:53:59;;;;;;;14.95;4.65;;;11.00;76.40;;;;;;5034817;28;20032;-64
2022/03/10 08:56:25;;;;;;;11.88;4.18;;;11.50;75.70;;;;;;5033856;28;20113;-64
2022/03/10 08:58:50;;;;;;;13.30;4.63;;;12.10;74.60;;;;;;5033775;28;20037;-64
2022/03/10 09:01:16;;;;;;;10.90;4.13;;;13.00;72.30;;;;;;5038191;28;20426;-64
2022/03/10 09:03:42;;;;;;;14.30;5.22;;;12.80;70.80;;;;;;5035721;28;20037;-64
2022/03/10 09:06:10;;;;;;;13.65;4.80;;;13.60;70.20;;;;;;5038276;28;20040;-64
2022/03/10 09:08:36;;;;;;;15.48;4.68;;;13.80;69.30;;;;;;5040153;28;20030;-65
2022/03/10 09:11:02;;;;;;;12.85;4.22;;;14.80;69.30;;;;;;5045291;28;20033;-65
2022/03/10 09:13:28;;;;;;;11.85;4.47;;;15.30;67.90;;;;;;5044915;28;20017;-65
2022/03/10 09:15:54;;;;;;;13.45;4.75;;;15.70;65.20;;;;;;5043627;28;20366;-65
2022/03/10 09:18:20;;;;;;;20.17;5.10;;;16.10;64.40;;;;;;5046963;28;20024;-65
2022/03/10 09:20:46;;;;;;;12.10;3.90;;;16.20;62.70;;;;;;5039483;28;20028;-65
2022/03/10 09:23:11;;;;;;;14.02;4.75;;;17.00;61.80;;;;;;5034958;28;20452;-65
2022/03/10 09:25:38;;;;;;;16.83;4.70;;;16.00;62.00;;;;;;5036795;28;20087;-65
2022/03/10 09:28:04;;;;;;;14.45;4.93;;;16.20;61.70;;;;;;5033607;28;20062;-65
2022/03/10 09:30:29;;;;;;;13.43;4.85;;;16.60;61.90;;;;;;5033116;28;20402;-65
2022/03/10 09:32:57;;;;;;;13.25;4.43;;;16.20;61.60;;;;;;5028540;28;20033;-65
2022/03/10 09:35:23;;;;;;;12.30;4.53;;;16.70;61.00;;;;;;5041928;28;20427;-65
2022/03/10 09:37:49;;;;;;;18.00;5.13;;;17.20;59.90;;;;;;5039807;28;20029;-65
2022/03/10 09:40:14;;;;;;;13.63;4.32;;;17.10;60.20;;;;;;5037184;28;20061;-65
2022/03/10 09:42:44;;;;;;;16.17;4.93;;;16.90;59.10;;;;;;5041960;28;20078;-65
2022/03/10 09:45:10;;;;;;;15.63;4.73;;;17.20;60.20;;;;;;5036796;28;20409;-65
2022/03/10 09:47:38;;;;;;;17.75;5.60;;;17.20;58.80;;;;;;5039387;28;20032;-65
2022/03/10 09:50:10;;;;;;;14.30;5.18;;;16.80;58.50;;;;;;5035767;28;20025;-65
2022/03/10 09:52:36;;;;;;;13.25;4.50;;;17.30;58.80;;;;;;5029889;28;20743;-65
2022/03/10 09:55:02;;;;;;;11.57;4.55;;;17.70;58.40;;;;;;5039804;28;20024;-65
2022/03/10 09:57:28;;;;;;;14.38;4.55;;;17.60;58.70;;;;;;5044663;28;20025;-65
2022/03/10 09:59:57;;;;;;;14.27;5.65;;;18.20;57.30;;;;;;5041311;28;20310;-65
2022/03/10 10:02:23;;;;;;;14.88;4.65;;;18.40;56.20;;;;;;5033847;28;20598;-65
2022/03/10 10:04:49;;;;;;;15.40;5.28;;;17.90;56.10;;;;;;5039334;28;20120;-65
2022/03/10 10:07:19;;;;;;;16.92;4.43;;;17.40;56.90;;;;;;5035817;28;20025;-65
2022/03/10 10:09:47;;;;;;;14.35;5.20;;;17.90;56.80;;;;;;5038835;28;20106;-65
2022/03/10 10:12:15;;;;;;;12.65;4.55;;;17.90;58.30;;;;;;5048207;28;20444;-65
2022/03/10 10:14:43;;;;;;;15.27;5.00;;;19.00;56.20;;;;;;5037908;28;20024;-65
2022/03/10 10:17:09;;;;;;;13.80;4.13;;;19.80;55.40;;;;;;5034762;28;20029;-65
2022/03/10 10:19:38;;;;;;;14.77;4.50;;;19.70;55.90;;;;;;5040379;28;20318;-65
2022/03/10 10:22:16;;;;;;;11.10;4.25;;;20.30;54.60;;;;;;5034773;28;20026;-65
2022/03/10 10:24:59;;;;;;;14.73;4.68;;;20.50;53.00;;;;;;5032360;28;20064;-65
2022/03/10 10:27:28;;;;;;;12.52;4.30;;;19.80;53.60;;;;;;5037931;28;20021;-65
2022/03/10 10:29:58;;;;;;;12.35;3.83;;;19.80;53.90;;;;;;5032947;28;20216;-65
2022/03/10 10:32:36;;;;;;;9.80;4.57;;;20.10;53.60;;;;;;5040176;28;20527;-65
2022/03/10 10:35:08;;;;;;;13.15;4.72;;;19.90;52.90;;;;;;5043119;28;20386;-65
2022/03/10 10:37:37;;;;;;;13.55;4.38;;;19.90;53.50;;;;;;5039022;28;20036;-65
2022/03/10 10:40:03;;;;;;;17.55;4.20;;;19.90;52.70;;;;;;5039367;28;20365;-65
2022/03/10 10:42:31;;;;;;;14.45;4.82;;;19.80;52.60;;;;;;5038083;28;20431;-65
2022/03/10 10:45:01;;;;;;;13.52;4.30;;;19.60;52.20;;;;;;5033973;28;20028;-65
2022/03/10 10:47:30;;;;;;;15.68;4.18;;;20.20;52.80;;;;;;5044592;28;20028;-65
2022/03/10 10:49:57;;;;;;;15.02;4.13;;;20.30;51.30;;;;;;5040048;28;20519;-65
2022/03/10 10:52:24;;;;;;;11.30;4.07;;;20.60;50.60;;;;;;5032678;28;20017;-65
2022/03/10 10:55:07;;;;;;;12.68;4.47;;;20.70;50.40;;;;;;5041970;28;20036;-65
2022/03/10 10:57:39;;;;;;;12.38;3.85;;;20.90;50.70;;;;;;5033343;28;20017;-65
2022/03/10 11:00:10;;;;;;;11.23;4.10;;;21.70;49.80;;;;;;5032878;28;20044;-65
2022/03/10 11:02:39;;;;;;;13.52;3.90;;;21.60;50.30;;;;;;5039731;28;20024;-65
2022/03/10 11:05:08;;;;;;;12.98;4.38;;;21.80;49.50;;;;;;5027444;28;20065;-64
2022/03/10 11:07:35;;;;;;;15.20;4.47;;;22.10;48.90;;;;;;5048676;28;20037;-64
2022/03/10 11:10:03;;;;;;;14.07;5.35;;;21.90;48.30;;;;;;5035471;28;20041;-64
2022/03/10 11:12:29;;;;;;;11.05;4.03;;;22.20;48.00;;;;;;5035087;28;20106;-67
2022/03/10 11:14:55;;;;;;;9.88;3.47;;;21.90;49.00;;;;;;5037409;28;20079;-64
2022/03/10 11:17:21;;;;;;;11.23;3.15;;;21.40;46.60;;;;;;5041544;28;20554;-67
2022/03/10 11:19:53;;;;;;;14.52;3.80;;;21.90;47.40;;;;;;5036859;28;20374;-65
2022/03/10 11:22:27;;;;;;;10.73;3.50;;;21.80;47.60;;;;;;5034503;28;20056;-64
2022/03/10 11:25:06;;;;;;;9.65;2.95;;;22.00;48.20;;;;;;5036899;28;20040;-65
2022/03/10 11:28:04;;;;;;;9.57;3.13;;;21.90;46.90;;;;;;5035342;28;20017;-65
2022/03/10 11:30:32;;;;;;;8.82;2.75;;;22.50;46.80;;;;;;5035322;28;20045;-65
2022/03/10 11:33:06;;;;;;;9.50;3.00;;;22.80;46.70;;;;;;5036539;28;20854;-65
2022/03/10 11:35:38;;;;;;;9.00;3.05;;;22.00;46.70;;;;;;5043920;28;20507;-65
2022/03/10 11:38:04;;;;;;;9.15;2.63;;;21.00;48.00;;;;;;5034802;28;20152;-65
2022/03/10 11:40:43;;;;;;;8.45;2.70;;;21.70;47.80;;;;;;5024095;28;20131;-65
2022/03/10 11:43:10;;;;;;;8.60;2.42;;;22.10;46.70;;;;;;5031664;28;20025;-65
2022/03/10 11:45:35;;;;;;;5.95;1.90;;;22.50;47.60;;;;;;5034183;28;20140;-65
2022/03/10 11:48:23;;;;;;;9.52;2.40;;;22.20;47.00;;;;;;5028726;28;20124;-64
2022/03/10 11:50:51;;;;;;;7.47;2.35;;;22.20;47.70;;;;;;5034657;28;20068;-64
2022/03/10 11:53:17;;;;;;;7.32;2.13;;;22.30;46.80;;;;;;5031435;28;20033;-64
2022/03/10 11:55:52;;;;;;;6.60;2.30;;;22.90;46.30;;;;;;5039590;28;20034;-64
2022/03/10 11:58:31;;;;;;;7.68;2.00;;;22.40;46.90;;;;;;5041406;28;20444;-64
2022/03/10 12:00:57;;;;;;;5.80;1.77;;;22.20;45.70;;;;;;5039451;28;20020;-64
2022/03/10 12:03:38;;;;;;;5.60;1.48;;;21.80;46.80;;;;;;5037958;28;20124;-64
2022/03/10 12:06:06;;;;;;;5.07;1.58;;;22.60;47.70;;;;;;5029652;28;20255;-64
2022/03/10 12:08:36;;;;;;;6.28;1.65;;;22.30;46.70;;;;;;5033991;28;20122;-64
2022/03/10 12:11:03;;;;;;;5.68;1.67;;;22.70;47.40;;;;;;5034010;28;20092;-64
2022/03/10 12:13:33;;;;;;;5.53;1.70;;;23.20;45.90;;;;;;5029358;28;20040;-64
2022/03/10 12:16:00;;;;;;;5.38;1.88;;;22.90;46.50;;;;;;5034953;28;20025;-64
2022/03/10 12:18:42;;;;;;;5.95;1.88;;;22.30;46.40;;;;;;5035849;28;20373;-65
2022/03/10 12:21:27;;;;;;;7.50;1.80;;;22.10;47.10;;;;;;5035844;28;20036;-64
2022/03/10 12:24:01;;;;;;;4.70;1.50;;;23.30;45.90;;;;;;5029716;28;20041;-64
2022/03/10 12:26:28;;;;;;;3.83;1.25;;;23.10;46.50;;;;;;5035535;28;20112;-65
2022/03/10 12:28:56;;;;;;;3.72;1.33;;;23.60;45.10;;;;;;5032451;28;20021;-64
2022/03/10 12:31:24;;;;;;;3.58;1.40;;;23.70;45.20;;;;;;5034572;28;20168;-64
2022/03/10 12:33:54;;;;;;;3.67;1.13;;;23.40;45.70;;;;;;5028373;28;20053;-64
2022/03/10 12:36:23;;;;;;;;;;;23.00;44.50;;;;;;5041328;28;20042;-64
2022/03/10 12:38:49;;;;;;;3.95;1.30;;;22.80;45.70;;;;;;5042954;28;19912;-64
2022/03/10 12:41:17;;;;;;;5.53;1.40;;;23.30;43.80;;;;;;5040546;28;20041;-64
2022/03/10 12:43:43;;;;;;;4.45;1.40;;;23.60;44.40;;;;;;5043233;28;20043;-64
2022/03/10 12:46:09;;;;;;;4.60;1.60;;;23.50;43.30;;;;;;5043892;28;20410;-64
2022/03/10 12:48:57;;;;;;;4.78;1.33;;;23.90;44.50;;;;;;5047357;28;20025;-65
2022/03/10 12:51:29;;;;;;;5.60;1.40;;;23.80;44.30;;;;;;5038702;28;20041;-64
2022/03/10 12:53:56;;;;;;;4.38;1.30;;;23.50;44.30;;;;;;5041553;28;20428;-65